Time;durP1;ratioP1;P1;durP2;ratioP2;P2;SDS_P1;SDS_P2;PMS_P1;PMS_P2;Temp;Humidity;BMP_temperature;BMP_pressure;BME280_temperature;BME280_humidity;BME280_pressure;Samples;Min_cycle;Max_cycle;Signal;HPM_P1;HPM_P2
2021/01/25 00:01:33;;;;;;;3.47;3.35;;;;;;;2.66;76.52;98889.59;4892590;29;20036;-76
2021/01/25 00:03:58;;;;;;;3.80;3.53;;;;;;;2.64;75.91;98907.09;4882163;29;20037;-78
2021/01/25 00:06:24;;;;;;;3.33;3.13;;;;;;;2.70;76.22;98922.28;4881691;29;20032;-77
2021/01/25 00:08:49;;;;;;;2.70;2.60;;;;;;;2.73;75.71;98933.41;4905293;29;20036;-79
2021/01/25 00:11:15;;;;;;;2.72;2.55;;;;;;;2.75;75.99;98935.88;4853727;29;20048;-78
2021/01/25 00:13:40;;;;;;;2.30;2.20;;;;;;;2.79;75.40;98942.41;4882457;29;20037;-78
2021/01/25 00:16:06;;;;;;;3.10;2.55;;;;;;;2.81;76.67;98953.75;4870050;29;20032;-77
2021/01/25 00:18:31;;;;;;;2.30;2.20;;;;;;;2.84;76.33;98952.44;4873409;29;20506;-76
2021/01/25 00:20:56;;;;;;;2.13;2.03;;;;;;;2.80;75.22;98944.00;4885931;29;20116;-77
2021/01/25 00:23:22;;;;;;;2.15;2.05;;;;;;;2.82;76.13;98952.69;4855209;29;20055;-77
2021/01/25 00:25:47;;;;;;;1.77;1.67;;;;;;;2.80;75.70;98965.63;4867115;29;20040;-75
2021/01/25 00:28:13;;;;;;;3.58;1.88;;;;;;;2.77;76.83;98966.94;4894648;29;20103;-77
2021/01/25 00:30:38;;;;;;;1.73;1.63;;;;;;;2.75;76.40;98984.47;4879201;29;20060;-77
2021/01/25 00:33:04;;;;;;;3.15;1.40;;;;;;;2.64;75.71;98977.28;4903305;29;20096;-77
2021/01/25 00:35:30;;;;;;;1.10;1.10;;;;;;;2.67;75.74;98987.56;4898272;29;20040;-78
2021/01/25 00:37:57;;;;;;;1.67;1.58;;;;;;;2.66;76.44;98994.03;4884037;29;20519;-78
2021/01/25 00:40:23;;;;;;;1.38;1.27;;;;;;;2.58;75.58;98979.91;4902797;29;20044;-78
2021/01/25 00:42:48;;;;;;;0.85;0.85;;;;;;;2.64;75.30;98998.88;4891810;29;20036;-78
2021/01/25 00:45:16;;;;;;;0.82;0.82;;;;;;;2.56;75.28;98994.72;4888609;29;20112;-77
2021/01/25 00:47:42;;;;;;;1.10;1.00;;;;;;;2.53;75.86;99004.13;4888848;29;20033;-78
2021/01/25 00:50:10;;;;;;;0.65;0.65;;;;;;;2.53;75.68;99006.03;4903672;29;20031;-78
2021/01/25 00:52:36;;;;;;;0.80;0.75;;;;;;;2.58;75.45;99023.09;4908585;29;20080;-78
2021/01/25 00:55:13;;;;;;;;;;;;;;;;;;;;;
2021/01/25 00:57:41;;;;;;;0.88;0.88;;;;;;;2.46;75.11;99019.69;4912163;29;20096;-79
2021/01/25 01:00:09;;;;;;;2.95;0.70;;;;;;;2.35;74.97;99029.50;4911451;29;20009;-79
2021/01/25 01:02:35;;;;;;;2.55;0.80;;;;;;;2.21;75.06;99034.41;4909399;29;20062;-79
2021/01/25 01:05:02;;;;;;;0.50;0.50;;;;;;;2.11;74.94;99042.31;4912267;29;20031;-78
2021/01/25 01:07:27;;;;;;;0.90;0.88;;;;;;;2.10;75.41;99062.25;4890790;29;20122;-79
2021/01/25 01:13:41;;;;;;;1.83;1.02;;;;;;;1.63;74.72;99032.88;4891110;29;20037;-80
2021/01/25 01:16:09;;;;;;;1.10;1.10;;;;;;;1.69;74.92;99072.31;4890133;29;20036;-82
2021/01/25 01:18:45;;;;;;;1.38;1.15;;;;;;;1.57;76.54;99064.28;4886221;29;20467;-77
2021/01/25 01:21:44;;;;;;;1.00;1.00;;;;;;;1.52;75.36;99078.47;4876984;29;20428;-77
2021/01/25 01:24:18;;;;;;;5.75;1.95;;;;;;;1.48;76.08;99085.41;4879070;29;20037;-77
2021/01/25 01:26:43;;;;;;;1.23;1.17;;;;;;;1.44;76.15;99094.19;4888775;29;20032;-78
2021/01/25 01:29:08;;;;;;;1.58;1.50;;;;;;;1.37;76.33;99088.94;4888166;29;20073;-78
2021/01/25 01:31:34;;;;;;;2.10;2.00;;;;;;;1.27;76.51;99091.41;4873248;29;20044;-77
2021/01/25 01:33:59;;;;;;;2.60;2.45;;;;;;;1.21;76.87;99091.31;4860309;29;20372;-78
2021/01/25 01:36:25;;;;;;;2.10;2.00;;;;;;;1.22;76.67;99111.00;4897820;29;20099;-76
2021/01/25 01:38:50;;;;;;;1.85;1.73;;;;;;;1.10;76.47;99110.19;4891206;29;20088;-78
2021/01/25 01:41:18;;;;;;;3.10;2.90;;;;;;;1.02;76.70;99116.75;4867409;29;20473;-79
2021/01/25 01:43:43;;;;;;;3.22;2.92;;;;;;;1.09;76.92;99125.50;4896717;29;20060;-78
2021/01/25 01:46:09;;;;;;;5.47;3.78;;;;;;;1.07;77.74;99145.66;4889032;29;20029;-79
2021/01/25 01:48:45;;;;;;;4.38;4.07;;;;;;;1.01;76.77;99144.75;4856225;29;20479;-79
2021/01/25 01:51:20;;;;;;;4.70;3.70;;;;;;;0.92;76.74;99146.13;4866878;29;20033;-79
2021/01/25 01:53:46;;;;;;;4.22;3.88;;;;;;;0.72;77.42;99124.97;4895381;29;20040;-78
2021/01/25 01:56:17;;;;;;;5.60;4.43;;;;;;;0.58;76.98;99124.34;4875320;29;20024;-79
2021/01/25 01:58:42;;;;;;;4.43;4.13;;;;;;;0.70;76.89;99160.16;4871689;29;20068;-80
2021/01/25 02:01:08;;;;;;;6.70;4.90;;;;;;;0.67;78.02;99161.44;4851266;29;20028;-79
2021/01/25 02:03:34;;;;;;;4.88;4.47;;;;;;;0.60;77.23;99154.50;4874866;29;20181;-78
2021/01/25 02:06:01;;;;;;;7.82;4.35;;;;;;;0.53;78.20;99160.03;4881736;29;20124;-80
2021/01/25 02:08:27;;;;;;;4.13;3.83;;;;;;;0.47;77.84;99156.38;4877027;29;20052;-80
2021/01/25 02:10:55;;;;;;;3.42;3.17;;;;;;;0.54;77.46;99187.72;4906895;29;20487;-80
2021/01/25 02:13:22;;;;;;;7.07;4.75;;;;;;;0.39;77.63;99170.16;4879610;29;20059;-81
2021/01/25 02:15:52;;;;;;;5.35;4.75;;;;;;;0.31;76.92;99167.81;4892529;29;20536;-82
2021/01/25 02:18:20;;;;;;;4.38;4.13;;;;;;;0.31;77.38;99178.56;4877298;29;20096;-79
2021/01/25 02:20:49;;;;;;;4.30;3.95;;;;;;;0.16;78.21;99166.34;4879199;29;20040;-79
2021/01/25 02:23:23;;;;;;;4.55;4.25;;;;;;;0.28;77.63;99187.09;4895620;29;20048;-79
2021/01/25 02:26:19;;;;;;;4.60;4.22;;;;;;;0.25;78.49;99192.91;4891476;29;20021;-79
2021/01/25 02:28:45;;;;;;;4.30;3.90;;;;;;;0.09;77.51;99197.88;4888612;29;20032;-78
2021/01/25 02:31:11;;;;;;;5.72;5.28;;;;;;;0.06;77.49;99192.13;4890359;29;20051;-80
2021/01/25 02:33:44;;;;;;;5.97;3.88;;;;;;;0.02;77.87;99189.09;4896346;29;20051;-81
2021/01/25 02:36:11;;;;;;;5.50;3.97;;;;;;;0.02;78.17;99196.34;4892125;29;20072;-80
2021/01/25 02:38:41;;;;;;;5.97;4.50;;;;;;;0.03;77.86;99203.34;4880956;29;20420;-79
2021/01/25 02:41:11;;;;;;;5.93;5.43;;;;;;;0.05;77.83;99218.19;4883551;29;20028;-77
2021/01/25 02:43:39;;;;;;;8.27;5.85;;;;;;;0.02;77.72;99223.22;4893906;29;20032;-78
2021/01/25 02:46:05;;;;;;;9.75;5.47;;;;;;;-0.09;78.28;99222.09;4892024;29;20031;-78
2021/01/25 02:48:31;;;;;;;6.03;5.50;;;;;;;-0.13;77.65;99223.59;4870014;29;20384;-78
2021/01/25 02:50:56;;;;;;;6.50;4.68;;;;;;;-0.11;78.64;99238.44;4880180;29;20025;-78
2021/01/25 02:53:29;;;;;;;5.00;4.53;;;;;;;-0.16;77.64;99238.31;4894034;29;20111;-78
2021/01/25 02:55:56;;;;;;;6.78;5.07;;;;;;;-0.22;77.83;99234.66;4877847;29;20029;-78
2021/01/25 02:58:25;;;;;;;9.02;5.25;;;;;;;-0.22;77.74;99245.41;4861611;29;20037;-79
2021/01/25 03:00:53;;;;;;;5.25;4.70;;;;;;;-0.30;77.94;99248.38;4877404;29;20484;-79
2021/01/25 03:03:20;;;;;;;8.77;4.82;;;;;;;-0.23;77.85;99265.25;4875379;29;20160;-78
2021/01/25 03:05:46;;;;;;;6.20;5.60;;;;;;;-0.33;77.39;99264.13;4894064;29;20088;-77
2021/01/25 03:08:12;;;;;;;9.27;6.63;;;;;;;-0.40;78.08;99254.25;4889764;29;20428;-78
2021/01/25 03:10:38;;;;;;;8.38;6.95;;;;;;;-0.35;77.98;99267.06;4884869;29;20471;-78
2021/01/25 03:13:05;;;;;;;6.80;5.57;;;;;;;-0.33;78.36;99274.88;4886305;29;20037;-77
2021/01/25 03:15:35;;;;;;;7.20;5.38;;;;;;;-0.38;77.75;99281.75;4877264;29;20547;-77
2021/01/25 03:18:04;;;;;;;6.93;6.13;;;;;;;-0.51;78.15;99267.59;4894168;29;20032;-77
2021/01/25 03:20:38;;;;;;;8.05;4.38;;;;;;;-0.59;77.83;99266.84;4883945;29;20112;-78
2021/01/25 03:23:34;;;;;;;4.38;4.10;;;;;;;-0.50;78.72;99280.00;4867376;29;20077;-78
2021/01/25 03:26:23;;;;;;;5.13;4.60;;;;;;;-0.53;77.61;99292.00;4872829;29;20077;-78
2021/01/25 03:28:49;;;;;;;5.13;4.70;;;;;;;-0.74;78.51;99258.34;4861113;29;20046;-77
2021/01/25 03:31:14;;;;;;;8.52;4.28;;;;;;;-0.71;78.48;99271.31;4896395;29;20037;-77
2021/01/25 03:34:02;;;;;;;5.18;4.72;;;;;;;-0.85;77.92;99261.72;4888273;29;20483;-77
2021/01/25 03:36:29;;;;;;;4.57;4.18;;;;;;;-0.92;78.43;99257.25;4878500;29;20040;-78
2021/01/25 03:39:03;;;;;;;6.85;5.63;;;;;;;-0.97;78.47;99265.13;4885660;29;20267;-78
2021/01/25 03:41:28;;;;;;;5.50;4.88;;;;;;;-0.78;78.07;99297.41;4887982;29;20043;-79
2021/01/25 03:43:54;;;;;;;4.18;3.85;;;;;;;-0.95;77.85;99278.31;4874856;29;20036;-78
2021/01/25 03:46:19;;;;;;;5.78;5.18;;;;;;;-0.82;77.84;99304.22;4893157;29;20031;-78
2021/01/25 03:48:45;;;;;;;5.55;4.55;;;;;;;-0.95;77.97;99297.94;4895281;29;20028;-78
2021/01/25 03:51:14;;;;;;;4.95;4.45;;;;;;;-0.92;78.25;99313.59;4878019;29;20038;-78
2021/01/25 03:53:40;;;;;;;7.10;5.50;;;;;;;-0.98;77.63;99306.44;4890450;29;20064;-78
2021/01/25 03:56:05;;;;;;;4.50;3.90;;;;;;;-0.93;78.15;99320.00;4899600;29;20403;-78
2021/01/25 03:58:31;;;;;;;13.65;5.82;;;;;;;-0.86;77.58;99329.88;4893649;29;20033;-78
2021/01/25 04:00:56;;;;;;;7.43;6.65;;;;;;;-0.95;77.70;99319.41;4900737;29;20036;-79
2021/01/25 04:03:21;;;;;;;11.25;6.10;;;;;;;-1.01;78.05;99306.84;4903849;29;20035;-79
2021/01/25 04:05:49;;;;;;;7.90;6.38;;;;;;;-0.99;77.94;99310.16;4900936;29;20033;-79
2021/01/25 04:08:15;;;;;;;7.53;6.18;;;;;;;-1.07;78.06;99308.56;4888126;29;20029;-80
2021/01/25 04:10:48;;;;;;;8.35;7.20;;;;;;;-0.99;77.26;99322.72;4879776;29;20387;-80
2021/01/25 04:13:13;;;;;;;7.45;6.55;;;;;;;-1.15;78.17;99306.13;4876092;29;20503;-79
2021/01/25 04:15:39;;;;;;;8.80;7.22;;;;;;;-1.06;77.90;99325.47;4856401;29;20037;-80
2021/01/25 04:18:04;;;;;;;13.10;6.60;;;;;;;-1.12;78.10;99329.03;4874165;29;20029;-80
2021/01/25 04:20:29;;;;;;;6.50;5.70;;;;;;;-1.10;77.83;99345.72;4892220;29;20043;-79
2021/01/25 04:22:55;;;;;;;17.08;6.07;;;;;;;-1.06;77.93;99363.03;4897464;29;20079;-79
2021/01/25 04:25:47;;;;;;;;;;;;;;;;;;;;;
2021/01/25 04:28:13;;;;;;;13.30;7.78;;;;;;;-1.17;78.01;99364.53;4904941;29;20052;-78
2021/01/25 04:30:46;;;;;;;12.20;7.50;;;;;;;-1.14;77.71;99377.53;4909437;29;20049;-77
2021/01/25 04:33:11;;;;;;;11.27;8.57;;;;;;;-1.28;77.57;99374.09;4890230;29;20035;-80
2021/01/25 04:35:41;;;;;;;10.20;7.47;;;;;;;-1.25;78.00;99386.25;4894040;29;20041;-79
2021/01/25 04:38:19;;;;;;;6.85;6.20;;;;;;;-1.30;78.25;99396.78;4880336;29;20044;-79
2021/01/25 04:40:44;;;;;;;12.75;7.03;;;;;;;-1.26;77.83;99406.88;4876003;29;20039;-79
2021/01/25 04:43:13;;;;;;;11.32;7.68;;;;;;;-1.47;77.81;99388.44;4880432;29;20044;-79
2021/01/25 04:45:42;;;;;;;11.13;6.93;;;;;;;-1.55;77.93;99391.34;4896932;29;20544;-80
2021/01/25 04:48:07;;;;;;;7.70;7.03;;;;;;;-1.48;77.85;99414.41;4895047;29;20029;-80
2021/01/25 04:50:36;;;;;;;9.38;6.07;;;;;;;-1.62;77.82;99400.22;4877707;29;20075;-80
2021/01/25 04:53:01;;;;;;;12.00;7.05;;;;;;;-1.69;78.69;99388.72;4871846;29;20033;-80
2021/01/25 04:55:30;;;;;;;8.80;7.18;;;;;;;-1.56;78.33;99409.28;4877143;29;20055;-80
2021/01/25 04:57:57;;;;;;;8.10;5.88;;;;;;;-1.57;78.39;99410.31;4856048;29;20040;-81
2021/01/25 05:00:25;;;;;;;6.13;5.57;;;;;;;-1.61;78.39;99404.56;4879934;29;20033;-80
2021/01/25 05:02:52;;;;;;;11.95;5.65;;;;;;;-1.58;78.73;99412.19;4891424;29;20051;-80
2021/01/25 05:05:18;;;;;;;6.40;4.68;;;;;;;-1.65;78.50;99397.97;4885014;29;20120;-82
2021/01/25 05:07:43;;;;;;;5.68;5.18;;;;;;;-1.56;78.43;99401.25;4893363;29;20467;-77
2021/01/25 05:10:09;;;;;;;6.57;5.68;;;;;;;-1.37;78.16;99420.97;4897722;29;20035;-75
2021/01/25 05:12:46;;;;;;;11.38;5.35;;;;;;;-1.48;78.05;99402.88;4893949;29;20028;-76
2021/01/25 05:15:24;;;;;;;5.95;5.07;;;;;;;-1.32;78.20;99423.03;4881459;29;20376;-76
2021/01/25 05:17:49;;;;;;;5.70;4.35;;;;;;;-1.27;77.69;99426.72;4867242;29;20036;-78
2021/01/25 05:20:15;;;;;;;5.15;4.57;;;;;;;-1.39;77.69;99420.34;4894634;29;20551;-77
2021/01/25 05:22:40;;;;;;;6.35;4.20;;;;;;;-1.47;77.13;99413.38;4892068;29;20040;-76
2021/01/25 05:25:09;;;;;;;6.68;3.53;;;;;;;-1.37;77.59;99431.72;4877157;29;20024;-76
2021/01/25 05:27:41;;;;;;;4.40;3.58;;;;;;;-1.43;77.05;99427.16;4894430;29;20115;-76
2021/01/25 05:30:24;;;;;;;3.78;3.47;;;;;;;-1.49;77.00;99428.88;4899474;29;20132;-76
2021/01/25 05:32:55;;;;;;;7.35;3.97;;;;;;;-1.41;76.88;99449.25;4894331;29;20036;-77
2021/01/25 05:35:28;;;;;;;11.00;5.05;;;;;;;-1.52;76.95;99434.66;4891813;29;20027;-76
2021/01/25 05:38:02;;;;;;;5.18;4.47;;;;;;;-1.59;76.96;99440.03;4894465;29;20047;-77
2021/01/25 05:40:39;;;;;;;5.30;4.80;;;;;;;-1.51;77.16;99464.97;4885942;29;20475;-77
2021/01/25 05:44:08;;;;;;;4.43;4.03;;;;;;;-1.55;76.87;99461.06;4894573;29;20025;-77
2021/01/25 05:46:36;;;;;;;4.75;4.35;;;;;;;-1.76;76.99;99450.38;4806779;29;20038;-77
2021/01/25 05:49:39;;;;;;;;;;;;;;;;;;;;;
2021/01/25 05:55:52;;;;;;;6.63;4.55;;;;;;;-1.73;77.46;99470.56;4801571;29;20050;-77
2021/01/25 05:58:17;;;;;;;5.53;3.97;;;;;;;-1.61;76.82;99481.47;4822746;29;20036;-77
2021/01/25 06:00:45;;;;;;;4.60;4.20;;;;;;;-1.74;77.11;99473.47;4898653;29;20491;-77
2021/01/25 06:03:11;;;;;;;9.50;5.38;;;;;;;-1.74;77.06;99474.28;4885913;29;20017;-78
2021/01/25 06:05:40;;;;;;;12.38;4.68;;;;;;;-1.64;77.18;99490.75;4901121;29;20467;-78
2021/01/25 06:08:37;;;;;;;6.90;5.05;;;;;;;-1.67;77.37;99507.25;4887553;29;20020;-77
2021/01/25 06:11:11;;;;;;;5.78;5.28;;;;;;;-1.81;77.55;99502.94;4889967;29;20029;-78
2021/01/25 06:13:53;;;;;;;5.65;5.07;;;;;;;-1.85;77.34;99491.03;4885548;29;20024;-77
2021/01/25 06:16:27;;;;;;;5.47;4.97;;;;;;;-1.87;77.44;99498.41;4894397;29;20037;-77
2021/01/25 06:19:05;;;;;;;9.90;5.90;;;;;;;-1.78;77.17;99524.00;4891292;29;20033;-76
2021/01/25 06:21:40;;;;;;;7.10;5.32;;;;;;;-1.90;77.81;99496.97;4898128;29;20061;-76
2021/01/25 06:24:08;;;;;;;5.60;5.18;;;;;;;-1.91;77.45;99495.34;4887940;29;20107;-76
2021/01/25 06:26:35;;;;;;;9.43;4.65;;;;;;;-1.79;77.68;99525.84;4889293;29;20028;-76
2021/01/25 06:29:05;;;;;;;7.10;4.53;;;;;;;-1.92;77.66;99500.91;4862907;29;20020;-77
2021/01/25 06:31:39;;;;;;;4.45;4.13;;;;;;;-1.81;77.66;99527.06;4893574;29;20048;-77
2021/01/25 06:34:12;;;;;;;5.10;4.70;;;;;;;-1.97;77.98;99509.53;4896217;29;20040;-77
2021/01/25 06:36:41;;;;;;;4.88;3.65;;;;;;;-1.99;77.33;99520.47;4899078;29;20037;-77
2021/01/25 06:39:07;;;;;;;4.47;4.22;;;;;;;-1.90;77.90;99528.31;4890046;29;20032;-77
2021/01/25 06:41:42;;;;;;;8.40;4.30;;;;;;;-2.00;77.80;99524.22;4896434;29;20036;-77
2021/01/25 06:44:11;;;;;;;4.47;4.18;;;;;;;-1.91;77.79;99540.06;4892190;29;20036;-77
2021/01/25 06:46:38;;;;;;;4.35;3.97;;;;;;;-1.98;77.66;99538.22;4895704;29;20512;-77
2021/01/25 06:49:09;;;;;;;17.33;4.60;;;;;;;-1.89;77.90;99551.41;4891497;29;20028;-77
2021/01/25 06:51:44;;;;;;;3.75;3.45;;;;;;;-2.03;77.92;99543.38;4891045;29;20025;-77
2021/01/25 06:54:12;;;;;;;4.60;3.22;;;;;;;-2.04;77.77;99544.41;4868286;29;20071;-75
2021/01/25 06:57:06;;;;;;;7.28;4.82;;;;;;;-2.08;77.79;99545.84;4876313;29;21913;-77
2021/01/25 06:59:36;;;;;;;3.95;3.65;;;;;;;-2.10;78.31;99561.28;4883960;29;20051;-77
2021/01/25 07:02:08;;;;;;;3.85;3.55;;;;;;;-2.10;77.86;99553.25;4896222;29;20029;-78
2021/01/25 07:04:45;;;;;;;4.10;3.80;;;;;;;-2.10;78.31;99555.94;4898269;29;20028;-78
2021/01/25 07:07:21;;;;;;;5.10;3.25;;;;;;;-2.13;78.21;99556.34;4883856;29;20029;-76
2021/01/25 07:13:17;;;;;;;6.72;4.30;;;;;;;-2.14;78.34;99562.72;4886635;29;20047;-77
2021/01/25 07:15:47;;;;;;;3.92;3.63;;;;;;;-2.02;78.50;99585.19;4888575;29;20040;-76
2021/01/25 07:18:13;;;;;;;3.80;3.50;;;;;;;-2.03;78.62;99588.94;4874551;29;20025;-76
2021/01/25 07:21:05;;;;;;;4.38;3.97;;;;;;;-2.03;78.12;99588.94;4865305;29;20125;-76
2021/01/25 07:24:17;;;;;;;3.38;3.17;;;;;;;-2.11;77.75;99575.72;4877272;29;20080;-76
2021/01/25 07:26:43;;;;;;;4.40;4.00;;;;;;;-2.01;77.67;99594.91;4875083;29;20044;-77
2021/01/25 07:29:17;;;;;;;6.85;4.60;;;;;;;-1.98;78.07;99599.84;4876118;29;20035;-77
2021/01/25 07:32:13;;;;;;;3.42;3.22;;;;;;;-1.84;77.95;99619.47;4882890;29;20049;-77
2021/01/25 07:34:39;;;;;;;5.10;3.80;;;;;;;-1.95;77.88;99615.50;4875845;29;20104;-77
2021/01/25 07:37:36;;;;;;;4.60;4.20;;;;;;;-1.82;77.65;99627.28;4872907;29;20051;-77
2021/01/25 07:40:02;;;;;;;4.03;3.72;;;;;;;-1.85;77.56;99628.53;4868067;29;20029;-79
2021/01/25 07:42:31;;;;;;;4.57;4.22;;;;;;;-2.00;77.72;99601.91;4895076;29;20444;-75
2021/01/25 07:44:57;;;;;;;6.57;3.90;;;;;;;-1.74;77.62;99640.47;4888507;29;20013;-74
2021/01/25 07:47:22;;;;;;;3.45;3.25;;;;;;;-1.84;77.14;99632.84;4868474;29;20555;-74
2021/01/25 07:49:47;;;;;;;4.40;4.10;;;;;;;-1.67;77.51;99649.34;4890284;29;20040;-74
2021/01/25 07:52:16;;;;;;;3.85;3.60;;;;;;;-1.77;77.26;99640.88;4860771;29;20037;-74
2021/01/25 07:54:58;;;;;;;3.45;3.15;;;;;;;-1.59;77.48;99657.22;4893197;29;22478;-76
2021/01/25 07:57:24;;;;;;;3.38;3.08;;;;;;;-1.77;76.93;99635.53;4858620;29;20041;-78
2021/01/25 08:00:28;;;;;;;3.63;2.20;;;;;;;-1.54;77.16;99655.78;4877968;29;20029;-77
2021/01/25 08:03:34;;;;;;;3.72;3.40;;;;;;;-1.52;77.12;99669.78;4861074;29;20044;-77
2021/01/25 08:06:05;;;;;;;3.05;2.88;;;;;;;-1.68;76.82;99660.28;4891482;29;20029;-77
2021/01/25 08:08:31;;;;;;;7.13;4.40;;;;;;;-1.62;76.77;99676.41;4892328;29;20037;-77
2021/01/25 08:11:00;;;;;;;4.82;4.53;;;;;;;-1.76;76.56;99669.34;4878066;29;20032;-79
2021/01/25 08:13:39;;;;;;;4.65;4.28;;;;;;;-1.84;76.86;99661.50;4879708;29;20039;-79
2021/01/25 08:16:34;;;;;;;7.65;5.32;;;;;;;-1.73;76.63;99684.22;4887856;29;20087;-79
2021/01/25 08:25:24;;;;;;;13.52;5.22;;;;;;;-1.83;77.17;99673.88;4894507;29;20122;-76
2021/01/25 08:27:57;;;;;;;5.35;4.25;;;;;;;-1.62;77.12;99703.19;4891954;29;20031;-77
2021/01/25 08:30:23;;;;;;;4.78;4.03;;;;;;;-1.66;77.11;99699.28;4884220;29;20038;-75
2021/01/25 08:32:56;;;;;;;3.80;3.42;;;;;;;-1.66;76.95;99701.13;4879904;29;20049;-76
2021/01/25 08:36:03;;;;;;;4.60;4.30;;;;;;;-1.62;77.04;99692.47;4867061;29;20041;-75
2021/01/25 08:39:40;;;;;;;;;;;;;;;;;;;;;
2021/01/25 08:42:54;;;;;;;;;;;;;;;;;;;;;
2021/01/25 08:45:34;;;;;;;5.68;3.63;;;;;;;-1.37;76.53;99733.97;4896868;29;20028;-76
2021/01/25 08:48:34;;;;;;;4.90;4.50;;;;;;;-1.53;76.25;99694.94;4892593;29;20059;-75
2021/01/25 08:51:37;;;;;;;;;;;;;;;;;;;;;
2021/01/25 08:54:24;;;;;;;8.63;3.53;;;;;;;-1.36;76.11;99723.03;4892352;29;20043;-78
2021/01/25 08:56:52;;;;;;;3.38;3.08;;;;;;;-1.24;75.77;99745.53;4888249;29;20025;-76
2021/01/25 08:59:37;;;;;;;7.60;3.83;;;;;;;-1.18;75.36;99751.09;4864749;29;20029;-76
2021/01/25 09:02:25;;;;;;;3.40;3.10;;;;;;;-1.18;74.72;99751.09;4893315;29;20024;-78
2021/01/25 09:04:59;;;;;;;3.88;3.50;;;;;;;-1.25;74.90;99733.16;4883515;29;20543;-78
2021/01/25 09:07:26;;;;;;;8.63;2.83;;;;;;;-1.07;75.12;99759.38;4898485;29;20356;-80
2021/01/25 09:09:54;;;;;;;7.65;3.80;;;;;;;-1.10;75.05;99742.84;4885143;29;20038;-79
2021/01/25 09:12:22;;;;;;;3.25;3.05;;;;;;;-1.02;73.98;99745.34;4888462;29;20032;-79
2021/01/25 09:14:55;;;;;;;3.55;3.25;;;;;;;-0.85;74.87;99766.41;4887757;29;20064;-80
2021/01/25 09:17:28;;;;;;;5.30;3.30;;;;;;;-0.72;74.18;99771.75;4896570;29;20459;-83
2021/01/25 09:19:53;;;;;;;3.03;2.83;;;;;;;-0.69;74.21;99767.84;4905089;29;20056;-80
2021/01/25 09:22:19;;;;;;;3.97;2.83;;;;;;;-0.39;74.85;99787.00;4910543;29;20021;-78
2021/01/25 09:24:44;;;;;;;2.60;2.50;;;;;;;0.38;74.50;99772.88;4911581;29;20032;-78
2021/01/25 09:27:11;;;;;;;6.25;3.15;;;;;;;1.66;73.30;99770.84;4888590;29;20496;-82
2021/01/25 09:29:37;;;;;;;2.42;2.22;;;;;;;2.89;69.72;99763.47;4898232;29;20035;-81
2021/01/25 09:32:04;;;;;;;2.88;2.70;;;;;;;4.04;65.78;99779.31;4898735;29;20043;-84
2021/01/25 09:34:29;;;;;;;7.60;3.10;;;;;;;4.98;62.46;99794.38;4897196;29;20134;-80
2021/01/25 09:36:55;;;;;;;3.47;2.78;;;;;;;5.60;60.18;99782.63;4897880;29;20033;-80
2021/01/25 09:39:20;;;;;;;2.53;2.22;;;;;;;6.29;58.13;99807.72;4910450;29;20849;-76
2021/01/25 09:41:47;;;;;;;14.45;2.28;;;;;;;6.81;56.81;99809.94;4891695;29;20425;-76
2021/01/25 09:44:17;;;;;;;4.88;2.80;;;;;;;7.31;55.94;99798.97;4885227;29;20033;-77
2021/01/25 09:46:43;;;;;;;2.00;1.90;;;;;;;7.77;53.81;99799.31;4890930;29;20119;-77
2021/01/25 09:49:16;;;;;;;2.33;2.08;;;;;;;8.30;53.38;99806.69;4860504;29;20496;-77
2021/01/25 09:51:46;;;;;;;2.35;2.08;;;;;;;8.74;51.00;99809.03;4878558;29;20069;-76
2021/01/25 09:54:14;;;;;;;4.25;2.70;;;;;;;9.00;48.74;99806.34;4870631;29;20029;-76
2021/01/25 09:56:39;;;;;;;6.03;2.00;;;;;;;9.05;47.54;99812.66;4898203;29;20021;-79
2021/01/25 09:59:05;;;;;;;2.15;1.70;;;;;;;9.32;47.97;99825.22;4875372;29;20100;-77
2021/01/25 10:01:30;;;;;;;2.50;2.00;;;;;;;9.64;47.23;99824.09;4868498;29;20119;-80
2021/01/25 10:03:56;;;;;;;1.73;1.63;;;;;;;10.05;46.64;99834.97;4893495;29;20111;-76
2021/01/25 10:10:20;;;;;;;3.78;1.70;;;;;;;10.80;44.85;99822.41;4796950;29;20059;-77
2021/01/25 10:17:09;;;;;;;2.13;1.60;;;;;;;11.72;44.11;99848.28;4792637;29;20157;-77
2021/01/25 10:19:34;;;;;;;4.88;1.63;;;;;;;12.08;42.10;99830.72;4685893;30;20448;-77
2021/01/25 10:22:00;;;;;;;4.65;1.55;;;;;;;12.32;41.38;99845.22;4792311;29;20039;-79
2021/01/25 10:24:25;;;;;;;1.67;1.58;;;;;;;12.55;41.04;99848.25;4787328;29;20123;-77
2021/01/25 10:26:53;;;;;;;2.05;1.50;;;;;;;12.88;41.28;99851.13;4842998;29;20040;-78
2021/01/25 10:29:19;;;;;;;2.40;1.88;;;;;;;13.23;39.30;99857.22;4879513;29;20083;-77
2021/01/25 10:31:45;;;;;;;2.45;1.40;;;;;;;13.48;39.38;99863.44;4883554;29;20051;-76
2021/01/25 10:34:16;;;;;;;4.50;1.60;;;;;;;13.73;37.39;99871.28;4888481;29;20032;-77
2021/01/25 10:36:42;;;;;;;2.55;2.13;;;;;;;13.85;37.58;99878.22;4906202;29;20028;-77
2021/01/25 10:39:07;;;;;;;2.03;1.92;;;;;;;13.75;37.53;99857.22;4890423;29;20036;-79
2021/01/25 10:42:16;;;;;;;5.03;2.35;;;;;;;13.95;35.75;99872.56;4905937;29;20043;-79
2021/01/25 10:44:41;;;;;;;6.10;1.92;;;;;;;14.11;35.92;99871.16;4900633;29;20036;-79
2021/01/25 10:47:18;;;;;;;2.63;2.42;;;;;;;14.15;35.21;99860.38;4907594;29;20459;-81
2021/01/25 10:49:53;;;;;;;6.30;1.88;;;;;;;14.11;35.20;99873.09;4910150;29;20055;-79
2021/01/25 10:52:18;;;;;;;1.77;1.67;;;;;;;14.27;35.25;99887.38;4902400;29;20032;-79
2021/01/25 10:54:47;;;;;;;2.67;2.25;;;;;;;14.40;34.14;99889.31;4885952;29;20041;-79
2021/01/25 10:57:13;;;;;;;2.22;2.03;;;;;;;14.48;34.94;99896.88;4896327;29;20029;-79
2021/01/25 10:59:53;;;;;;;2.10;2.00;;;;;;;14.62;35.00;99885.06;4904404;29;20056;-80
2021/01/25 11:02:19;;;;;;;2.33;1.85;;;;;;;14.99;34.65;99897.75;4877934;29;20087;-74
2021/01/25 11:04:47;;;;;;;2.10;1.90;;;;;;;15.17;34.09;99901.53;4894614;29;20514;-76
2021/01/25 11:07:15;;;;;;;2.90;1.85;;;;;;;15.40;34.44;99895.22;4901601;29;20099;-74
2021/01/25 11:09:43;;;;;;;2.15;1.40;;;;;;;15.62;33.41;99899.94;4898657;29;20040;-78
2021/01/25 11:12:08;;;;;;;4.18;2.30;;;;;;;15.81;33.25;99903.38;4889133;29;20474;-76
2021/01/25 11:14:34;;;;;;;3.13;1.77;;;;;;;16.23;33.41;99903.13;4878199;29;20036;-76
2021/01/25 11:16:59;;;;;;;2.20;2.00;;;;;;;16.50;32.79;99896.59;4899225;29;20164;-76
2021/01/25 11:19:25;;;;;;;1.98;1.88;;;;;;;16.50;31.31;99913.16;4899282;29;20025;-77
2021/01/25 11:21:53;;;;;;;2.70;2.08;;;;;;;16.18;31.67;99912.34;4891496;29;20029;-77
2021/01/25 11:24:19;;;;;;;1.88;1.77;;;;;;;15.94;32.05;99918.19;4884443;29;20047;-77
2021/01/25 11:26:44;;;;;;;1.65;1.55;;;;;;;15.44;32.48;99924.59;4909553;29;20472;-77
2021/01/25 11:29:10;;;;;;;1.92;1.67;;;;;;;15.07;33.40;99928.44;4898048;29;20036;-77
2021/01/25 11:31:36;;;;;;;3.28;1.73;;;;;;;14.81;33.90;99927.06;4903134;29;20365;-77
2021/01/25 11:34:02;;;;;;;2.55;2.15;;;;;;;14.73;34.58;99927.75;4843132;29;20032;-78
2021/01/25 11:36:28;;;;;;;1.92;1.63;;;;;;;14.80;33.60;99925.41;4884943;29;20058;-79
2021/01/25 11:38:54;;;;;;;1.35;1.25;;;;;;;14.73;33.49;99930.50;4874984;29;20080;-77
2021/01/25 11:41:24;;;;;;;8.15;1.98;;;;;;;14.64;34.26;99927.66;4872647;29;20025;-77
2021/01/25 11:43:50;;;;;;;1.30;1.30;;;;;;;14.65;34.36;99940.31;4856778;29;20054;-76
2021/01/25 11:46:17;;;;;;;1.20;1.10;;;;;;;14.89;34.13;99938.47;4894460;29;20032;-77
2021/01/25 11:48:46;;;;;;;1.27;1.17;;;;;;;15.10;34.47;99938.84;4891222;29;20065;-78
2021/01/25 11:51:11;;;;;;;1.67;0.88;;;;;;;15.59;33.08;99939.16;4868131;29;20065;-76
2021/01/25 11:53:37;;;;;;;1.65;1.55;;;;;;;15.86;32.19;99927.25;4888322;29;20503;-75
2021/01/25 11:56:03;;;;;;;1.60;1.15;;;;;;;16.40;31.83;99952.06;4883036;29;20178;-75
2021/01/25 11:58:28;;;;;;;1.63;1.10;;;;;;;16.65;30.95;99953.31;4875441;29;20848;-76
2021/01/25 12:00:56;;;;;;;1.13;1.02;;;;;;;17.06;30.75;99945.84;4855432;29;20469;-75
2021/01/25 12:03:22;;;;;;;1.52;1.42;;;;;;;17.37;29.96;99962.31;4862340;29;20041;-76
2021/01/25 12:05:47;;;;;;;4.90;1.08;;;;;;;17.51;30.59;99945.59;4873928;29;20032;-77
2021/01/25 12:08:13;;;;;;;1.27;1.17;;;;;;;18.12;29.75;99958.56;4885887;29;20043;-77
2021/01/25 12:10:39;;;;;;;9.05;1.30;;;;;;;18.51;29.69;99956.69;4874572;29;20040;-76
2021/01/25 12:13:05;;;;;;;3.25;0.90;;;;;;;18.90;28.53;99965.84;4877426;29;20033;-76
2021/01/25 12:15:34;;;;;;;3.20;1.10;;;;;;;18.90;28.17;99959.50;4872086;29;20037;-77
2021/01/25 12:18:00;;;;;;;1.13;1.02;;;;;;;19.15;28.82;99969.63;4881568;29;20036;-75
2021/01/25 12:20:31;;;;;;;0.93;0.80;;;;;;;19.76;28.49;99967.59;4867420;29;20032;-75
2021/01/25 12:22:57;;;;;;;1.50;0.70;;;;;;;20.05;27.00;99942.53;4881029;29;20480;-75
2021/01/25 12:25:22;;;;;;;2.00;0.90;;;;;;;20.19;27.17;99963.59;4875634;29;20029;-75
2021/01/25 12:27:49;;;;;;;1.58;0.88;;;;;;;20.18;26.58;99973.09;4858728;29;20040;-74